Terminal Aerodrome Forecast
Issued by NWS

Home | Current Version | Previous Version | Graphics & Text | Print | Product List | Glossary On
Versions: 1 2 3 4 5 6 7 8 9 10 11 12 13 14 15 16 17 18 19 20 21 22 23 24 25 26 27 28
000
FTUS43 KGRB 090532 AAA
TAFATW
TAF AMD
KATW 090532Z 0906/1006 24005KT 3SM -SN OVC025
      TEMPO 0906/0909 1 1/2SM -SN BKN015
     FM090900 34010G16KT 3SM -SN BKN017
     FM091200 36013G26KT P6SM -SHSN BKN025
     FM091600 34014G24KT P6SM BKN030
     FM092000 32012G18KT P6SM SCT040
     FM092300 29006KT P6SM BKN100=

USA.gov is the U.S. government's official web portal to all federal, state and local government web resources and services.